sensor_id;sensor_type;location;lat;lon;timestamp;P1;durP1;ratioP1;P2;durP2;ratioP2
20084;SDS011;10202;48.474;9.138;2022-10-16T00:01:23;9.43;;;0.88;;
20084;SDS011;10202;48.474;9.138;2022-10-16T00:03:49;3.42;;;0.70;;
20084;SDS011;10202;48.474;9.138;2022-10-16T00:06:15;5.57;;;1.20;;
20084;SDS011;10202;48.474;9.138;2022-10-16T00:08:42;8.25;;;1.50;;
20084;SDS011;10202;48.474;9.138;2022-10-16T00:11:09;2.80;;;1.60;;
20084;SDS011;10202;48.474;9.138;2022-10-16T00:13:37;7.10;;;2.45;;
20084;SDS011;10202;48.474;9.138;2022-10-16T00:16:03;6.15;;;3.00;;
20084;SDS011;10202;48.474;9.138;2022-10-16T00:18:29;11.15;;;3.83;;
20084;SDS011;10202;48.474;9.138;2022-10-16T00:20:55;8.40;;;3.90;;
20084;SDS011;10202;48.474;9.138;2022-10-16T00:23:21;8.13;;;3.45;;
20084;SDS011;10202;48.474;9.138;2022-10-16T00:28:42;5.15;;;2.50;;
20084;SDS011;10202;48.474;9.138;2022-10-16T00:31:08;4.80;;;2.40;;
20084;SDS011;10202;48.474;9.138;2022-10-16T00:33:35;5.97;;;1.98;;
20084;SDS011;10202;48.474;9.138;2022-10-16T00:36:01;4.72;;;1.80;;
20084;SDS011;10202;48.474;9.138;2022-10-16T00:38:28;4.10;;;1.50;;
20084;SDS011;10202;48.474;9.138;2022-10-16T00:40:54;2.63;;;1.60;;
20084;SDS011;10202;48.474;9.138;2022-10-16T00:46:19;1.15;;;1.00;;
20084;SDS011;10202;48.474;9.138;2022-10-16T00:48:48;2.92;;;0.80;;
20084;SDS011;10202;48.474;9.138;2022-10-16T00:51:16;2.65;;;0.85;;
20084;SDS011;10202;48.474;9.138;2022-10-16T00:53:43;7.60;;;1.10;;
20084;SDS011;10202;48.474;9.138;2022-10-16T00:56:09;2.92;;;0.82;;
20084;SDS011;10202;48.474;9.138;2022-10-16T00:58:34;2.33;;;1.02;;
20084;SDS011;10202;48.474;9.138;2022-10-16T01:01:00;1.52;;;0.90;;
20084;SDS011;10202;48.474;9.138;2022-10-16T01:06:18;7.07;;;1.08;;
20084;SDS011;10202;48.474;9.138;2022-10-16T01:14:52;0.90;;;0.70;;
20084;SDS011;10202;48.474;9.138;2022-10-16T01:17:21;3.13;;;0.70;;
20084;SDS011;10202;48.474;9.138;2022-10-16T01:29:13;1.27;;;0.80;;
20084;SDS011;10202;48.474;9.138;2022-10-16T01:31:42;4.82;;;0.80;;
20084;SDS011;10202;48.474;9.138;2022-10-16T01:34:11;0.88;;;0.88;;
20084;SDS011;10202;48.474;9.138;2022-10-16T01:39:40;3.30;;;0.98;;
20084;SDS011;10202;48.474;9.138;2022-10-16T01:42:09;1.40;;;0.80;;
20084;SDS011;10202;48.474;9.138;2022-10-16T01:44:38;4.50;;;0.77;;
20084;SDS011;10202;48.474;9.138;2022-10-16T01:47:04;1.05;;;0.85;;
20084;SDS011;10202;48.474;9.138;2022-10-16T01:49:32;2.88;;;0.90;;
20084;SDS011;10202;48.474;9.138;2022-10-16T01:51:59;1.20;;;0.90;;
20084;SDS011;10202;48.474;9.138;2022-10-16T01:54:26;3.10;;;1.05;;
20084;SDS011;10202;48.474;9.138;2022-10-16T01:56:52;3.53;;;1.00;;
20084;SDS011;10202;48.474;9.138;2022-10-16T01:59:20;5.00;;;0.90;;
20084;SDS011;10202;48.474;9.138;2022-10-16T02:01:47;1.90;;;0.95;;
20084;SDS011;10202;48.474;9.138;2022-10-16T02:04:16;1.17;;;0.80;;
20084;SDS011;10202;48.474;9.138;2022-10-16T02:06:43;1.00;;;0.70;;
20084;SDS011;10202;48.474;9.138;2022-10-16T02:09:08;3.35;;;0.65;;
20084;SDS011;10202;48.474;9.138;2022-10-16T02:11:34;1.63;;;0.90;;
20084;SDS011;10202;48.474;9.138;2022-10-16T02:16:49;2.83;;;0.80;;
20084;SDS011;10202;48.474;9.138;2022-10-16T02:19:15;1.92;;;0.80;;
20084;SDS011;10202;48.474;9.138;2022-10-16T02:27:58;2.17;;;0.80;;
20084;SDS011;10202;48.474;9.138;2022-10-16T02:31:04;2.53;;;0.82;;
20084;SDS011;10202;48.474;9.138;2022-10-16T02:33:33;1.15;;;1.00;;
20084;SDS011;10202;48.474;9.138;2022-10-16T02:35:58;1.10;;;0.90;;
20084;SDS011;10202;48.474;9.138;2022-10-16T02:38:24;3.33;;;0.90;;
20084;SDS011;10202;48.474;9.138;2022-10-16T02:40:50;2.45;;;0.90;;
20084;SDS011;10202;48.474;9.138;2022-10-16T02:43:15;1.00;;;0.90;;
20084;SDS011;10202;48.474;9.138;2022-10-16T02:45:41;2.60;;;1.00;;
20084;SDS011;10202;48.474;9.138;2022-10-16T02:48:07;1.45;;;0.90;;
20084;SDS011;10202;48.474;9.138;2022-10-16T02:50:32;9.27;;;1.10;;
20084;SDS011;10202;48.474;9.138;2022-10-16T02:52:58;3.65;;;0.98;;
20084;SDS011;10202;48.474;9.138;2022-10-16T02:55:23;1.13;;;0.98;;
20084;SDS011;10202;48.474;9.138;2022-10-16T02:57:48;1.80;;;1.00;;
20084;SDS011;10202;48.474;9.138;2022-10-16T03:00:15;1.27;;;0.90;;
20084;SDS011;10202;48.474;9.138;2022-10-16T03:02:41;2.47;;;0.98;;
20084;SDS011;10202;48.474;9.138;2022-10-16T03:05:07;2.33;;;1.27;;
20084;SDS011;10202;48.474;9.138;2022-10-16T03:07:32;2.55;;;0.85;;
20084;SDS011;10202;48.474;9.138;2022-10-16T03:09:58;1.10;;;1.00;;
20084;SDS011;10202;48.474;9.138;2022-10-16T03:12:25;4.97;;;1.23;;
20084;SDS011;10202;48.474;9.138;2022-10-16T03:14:52;2.38;;;1.10;;
20084;SDS011;10202;48.474;9.138;2022-10-16T03:17:17;4.50;;;1.20;;
20084;SDS011;10202;48.474;9.138;2022-10-16T03:19:43;2.30;;;1.00;;
20084;SDS011;10202;48.474;9.138;2022-10-16T03:22:08;1.60;;;0.80;;
20084;SDS011;10202;48.474;9.138;2022-10-16T03:24:34;2.17;;;1.13;;
20084;SDS011;10202;48.474;9.138;2022-10-16T03:26:59;1.35;;;1.15;;
20084;SDS011;10202;48.474;9.138;2022-10-16T03:29:25;1.90;;;0.90;;
20084;SDS011;10202;48.474;9.138;2022-10-16T03:31:51;3.33;;;1.33;;
20084;SDS011;10202;48.474;9.138;2022-10-16T03:34:16;3.17;;;0.90;;
20084;SDS011;10202;48.474;9.138;2022-10-16T03:36:42;1.77;;;0.95;;
20084;SDS011;10202;48.474;9.138;2022-10-16T03:39:07;3.92;;;0.95;;
20084;SDS011;10202;48.474;9.138;2022-10-16T03:41:33;1.85;;;1.10;;
20084;SDS011;10202;48.474;9.138;2022-10-16T03:43:58;2.35;;;1.00;;
20084;SDS011;10202;48.474;9.138;2022-10-16T03:46:23;1.38;;;0.80;;
20084;SDS011;10202;48.474;9.138;2022-10-16T03:48:49;3.85;;;1.08;;
20084;SDS011;10202;48.474;9.138;2022-10-16T03:51:14;3.47;;;1.00;;
20084;SDS011;10202;48.474;9.138;2022-10-16T03:53:39;4.97;;;1.10;;
20084;SDS011;10202;48.474;9.138;2022-10-16T03:56:05;3.67;;;1.33;;
20084;SDS011;10202;48.474;9.138;2022-10-16T03:58:31;4.13;;;1.10;;
20084;SDS011;10202;48.474;9.138;2022-10-16T04:00:56;2.30;;;1.13;;
20084;SDS011;10202;48.474;9.138;2022-10-16T04:03:21;4.25;;;1.30;;
20084;SDS011;10202;48.474;9.138;2022-10-16T04:05:48;3.70;;;1.20;;
20084;SDS011;10202;48.474;9.138;2022-10-16T04:08:13;1.33;;;0.95;;
20084;SDS011;10202;48.474;9.138;2022-10-16T04:10:39;11.02;;;1.45;;
20084;SDS011;10202;48.474;9.138;2022-10-16T04:13:04;1.75;;;1.00;;
20084;SDS011;10202;48.474;9.138;2022-10-16T04:15:29;5.65;;;1.38;;
20084;SDS011;10202;48.474;9.138;2022-10-16T04:17:55;4.32;;;0.93;;
20084;SDS011;10202;48.474;9.138;2022-10-16T04:20:20;1.50;;;1.00;;
20084;SDS011;10202;48.474;9.138;2022-10-16T04:22:46;2.50;;;1.40;;
20084;SDS011;10202;48.474;9.138;2022-10-16T04:25:11;3.85;;;1.27;;
20084;SDS011;10202;48.474;9.138;2022-10-16T04:27:37;6.72;;;1.08;;
20084;SDS011;10202;48.474;9.138;2022-10-16T04:30:03;3.95;;;1.35;;
20084;SDS011;10202;48.474;9.138;2022-10-16T04:32:29;1.88;;;1.00;;
20084;SDS011;10202;48.474;9.138;2022-10-16T04:34:54;3.47;;;1.05;;
20084;SDS011;10202;48.474;9.138;2022-10-16T04:37:23;1.10;;;1.00;;
20084;SDS011;10202;48.474;9.138;2022-10-16T04:39:49;7.22;;;1.20;;
20084;SDS011;10202;48.474;9.138;2022-10-16T04:42:14;3.58;;;1.10;;
20084;SDS011;10202;48.474;9.138;2022-10-16T04:44:40;3.75;;;1.20;;
20084;SDS011;10202;48.474;9.138;2022-10-16T04:47:05;4.10;;;1.00;;
20084;SDS011;10202;48.474;9.138;2022-10-16T04:49:30;1.42;;;0.85;;
20084;SDS011;10202;48.474;9.138;2022-10-16T04:51:56;2.38;;;1.10;;
20084;SDS011;10202;48.474;9.138;2022-10-16T04:54:21;1.30;;;1.10;;
20084;SDS011;10202;48.474;9.138;2022-10-16T04:56:46;4.78;;;1.30;;
20084;SDS011;10202;48.474;9.138;2022-10-16T04:59:13;11.93;;;6.10;;
20084;SDS011;10202;48.474;9.138;2022-10-16T05:01:39;16.90;;;9.77;;
20084;SDS011;10202;48.474;9.138;2022-10-16T05:04:05;14.82;;;8.48;;
20084;SDS011;10202;48.474;9.138;2022-10-16T05:06:30;10.27;;;5.00;;
20084;SDS011;10202;48.474;9.138;2022-10-16T05:08:55;6.18;;;3.13;;
20084;SDS011;10202;48.474;9.138;2022-10-16T05:11:21;5.40;;;3.42;;
20084;SDS011;10202;48.474;9.138;2022-10-16T05:13:46;5.75;;;3.45;;
20084;SDS011;10202;48.474;9.138;2022-10-16T05:16:12;6.43;;;3.15;;
20084;SDS011;10202;48.474;9.138;2022-10-16T05:18:37;6.80;;;3.33;;
20084;SDS011;10202;48.474;9.138;2022-10-16T05:21:03;5.88;;;1.52;;
20084;SDS011;10202;48.474;9.138;2022-10-16T05:23:28;1.25;;;1.02;;
20084;SDS011;10202;48.474;9.138;2022-10-16T05:25:54;2.95;;;1.80;;
20084;SDS011;10202;48.474;9.138;2022-10-16T05:28:20;7.30;;;3.33;;
20084;SDS011;10202;48.474;9.138;2022-10-16T05:30:46;9.70;;;4.00;;
20084;SDS011;10202;48.474;9.138;2022-10-16T05:33:11;6.78;;;3.17;;
20084;SDS011;10202;48.474;9.138;2022-10-16T05:35:37;5.63;;;1.95;;
20084;SDS011;10202;48.474;9.138;2022-10-16T05:38:02;4.40;;;1.50;;
20084;SDS011;10202;48.474;9.138;2022-10-16T05:40:27;4.50;;;1.73;;
20084;SDS011;10202;48.474;9.138;2022-10-16T05:45:41;1.58;;;1.48;;
20084;SDS011;10202;48.474;9.138;2022-10-16T05:48:07;6.65;;;1.90;;
20084;SDS011;10202;48.474;9.138;2022-10-16T05:50:32;5.85;;;1.83;;
20084;SDS011;10202;48.474;9.138;2022-10-16T05:52:58;3.72;;;2.25;;
20084;SDS011;10202;48.474;9.138;2022-10-16T05:55:23;11.25;;;6.55;;
20084;SDS011;10202;48.474;9.138;2022-10-16T05:57:49;7.60;;;5.78;;
20084;SDS011;10202;48.474;9.138;2022-10-16T06:00:14;8.20;;;3.17;;
20084;SDS011;10202;48.474;9.138;2022-10-16T06:02:40;2.25;;;1.75;;
20084;SDS011;10202;48.474;9.138;2022-10-16T06:05:05;5.43;;;1.50;;
20084;SDS011;10202;48.474;9.138;2022-10-16T06:07:33;2.58;;;2.13;;
20084;SDS011;10202;48.474;9.138;2022-10-16T06:10:00;12.18;;;2.40;;
20084;SDS011;10202;48.474;9.138;2022-10-16T06:12:26;6.20;;;2.42;;
20084;SDS011;10202;48.474;9.138;2022-10-16T06:14:51;5.65;;;2.30;;
20084;SDS011;10202;48.474;9.138;2022-10-16T06:17:17;5.03;;;2.88;;
20084;SDS011;10202;48.474;9.138;2022-10-16T06:19:42;4.10;;;2.42;;
20084;SDS011;10202;48.474;9.138;2022-10-16T06:22:07;3.53;;;2.10;;
20084;SDS011;10202;48.474;9.138;2022-10-16T06:24:33;4.05;;;2.30;;
20084;SDS011;10202;48.474;9.138;2022-10-16T06:26:58;4.95;;;2.63;;
20084;SDS011;10202;48.474;9.138;2022-10-16T06:29:23;6.13;;;2.05;;
20084;SDS011;10202;48.474;9.138;2022-10-16T06:31:49;4.57;;;1.70;;
20084;SDS011;10202;48.474;9.138;2022-10-16T06:34:14;4.00;;;1.30;;
20084;SDS011;10202;48.474;9.138;2022-10-16T06:36:40;1.35;;;1.10;;
20084;SDS011;10202;48.474;9.138;2022-10-16T06:39:06;1.88;;;1.20;;
20084;SDS011;10202;48.474;9.138;2022-10-16T06:41:32;4.72;;;1.60;;
20084;SDS011;10202;48.474;9.138;2022-10-16T06:44:09;5.22;;;2.05;;
20084;SDS011;10202;48.474;9.138;2022-10-16T06:46:34;6.38;;;3.15;;
20084;SDS011;10202;48.474;9.138;2022-10-16T06:48:59;8.93;;;3.25;;
20084;SDS011;10202;48.474;9.138;2022-10-16T06:51:25;10.18;;;3.70;;
20084;SDS011;10202;48.474;9.138;2022-10-16T06:53:52;4.07;;;3.17;;
20084;SDS011;10202;48.474;9.138;2022-10-16T06:56:19;5.57;;;2.50;;
20084;SDS011;10202;48.474;9.138;2022-10-16T06:58:46;4.60;;;1.70;;
20084;SDS011;10202;48.474;9.138;2022-10-16T07:01:35;4.30;;;1.20;;
20084;SDS011;10202;48.474;9.138;2022-10-16T07:04:01;1.20;;;1.10;;
20084;SDS011;10202;48.474;9.138;2022-10-16T07:06:27;4.57;;;1.10;;
20084;SDS011;10202;48.474;9.138;2022-10-16T07:08:55;4.30;;;1.50;;
20084;SDS011;10202;48.474;9.138;2022-10-16T07:11:21;4.05;;;1.30;;
20084;SDS011;10202;48.474;9.138;2022-10-16T07:13:48;2.20;;;1.42;;
20084;SDS011;10202;48.474;9.138;2022-10-16T07:16:15;2.67;;;1.92;;
20084;SDS011;10202;48.474;9.138;2022-10-16T07:19:02;3.55;;;1.75;;
20084;SDS011;10202;48.474;9.138;2022-10-16T07:21:28;3.60;;;1.98;;
20084;SDS011;10202;48.474;9.138;2022-10-16T07:24:22;2.15;;;1.60;;
20084;SDS011;10202;48.474;9.138;2022-10-16T07:26:47;3.47;;;1.70;;
20084;SDS011;10202;48.474;9.138;2022-10-16T07:29:17;2.78;;;1.73;;
20084;SDS011;10202;48.474;9.138;2022-10-16T07:31:45;2.65;;;1.85;;
20084;SDS011;10202;48.474;9.138;2022-10-16T07:34:12;3.50;;;1.55;;
20084;SDS011;10202;48.474;9.138;2022-10-16T07:36:38;3.30;;;1.85;;
20084;SDS011;10202;48.474;9.138;2022-10-16T07:39:04;4.85;;;1.90;;
20084;SDS011;10202;48.474;9.138;2022-10-16T07:41:29;4.97;;;1.95;;
20084;SDS011;10202;48.474;9.138;2022-10-16T07:43:55;5.68;;;3.50;;
20084;SDS011;10202;48.474;9.138;2022-10-16T07:46:22;7.18;;;3.30;;
20084;SDS011;10202;48.474;9.138;2022-10-16T07:48:47;5.55;;;3.22;;
20084;SDS011;10202;48.474;9.138;2022-10-16T07:51:14;6.40;;;1.95;;
20084;SDS011;10202;48.474;9.138;2022-10-16T07:53:40;2.15;;;1.52;;
20084;SDS011;10202;48.474;9.138;2022-10-16T07:56:06;3.75;;;2.58;;
20084;SDS011;10202;48.474;9.138;2022-10-16T07:58:33;17.25;;;5.57;;
20084;SDS011;10202;48.474;9.138;2022-10-16T08:01:02;11.50;;;4.60;;
20084;SDS011;10202;48.474;9.138;2022-10-16T08:03:28;3.10;;;2.50;;
20084;SDS011;10202;48.474;9.138;2022-10-16T08:05:54;4.68;;;1.65;;
20084;SDS011;10202;48.474;9.138;2022-10-16T08:08:21;6.13;;;1.20;;
20084;SDS011;10202;48.474;9.138;2022-10-16T08:10:47;2.03;;;1.15;;
20084;SDS011;10202;48.474;9.138;2022-10-16T08:13:12;1.80;;;1.13;;
20084;SDS011;10202;48.474;9.138;2022-10-16T08:15:40;2.00;;;1.25;;
20084;SDS011;10202;48.474;9.138;2022-10-16T08:18:05;5.35;;;1.40;;
20084;SDS011;10202;48.474;9.138;2022-10-16T08:20:31;8.40;;;1.40;;
20084;SDS011;10202;48.474;9.138;2022-10-16T08:22:58;7.78;;;1.40;;
20084;SDS011;10202;48.474;9.138;2022-10-16T08:25:24;3.15;;;1.02;;
20084;SDS011;10202;48.474;9.138;2022-10-16T08:27:50;7.53;;;1.40;;
20084;SDS011;10202;48.474;9.138;2022-10-16T08:30:16;2.20;;;1.48;;
20084;SDS011;10202;48.474;9.138;2022-10-16T08:32:44;5.25;;;2.25;;
20084;SDS011;10202;48.474;9.138;2022-10-16T08:35:11;1.83;;;1.10;;
20084;SDS011;10202;48.474;9.138;2022-10-16T08:37:37;3.70;;;1.35;;
20084;SDS011;10202;48.474;9.138;2022-10-16T08:40:04;1.50;;;1.40;;
20084;SDS011;10202;48.474;9.138;2022-10-16T08:45:36;3.20;;;1.17;;
20084;SDS011;10202;48.474;9.138;2022-10-16T08:51:11;6.68;;;1.35;;
20084;SDS011;10202;48.474;9.138;2022-10-16T08:57:01;4.78;;;1.38;;
20084;SDS011;10202;48.474;9.138;2022-10-16T08:59:34;2.35;;;1.10;;
20084;SDS011;10202;48.474;9.138;2022-10-16T09:02:00;1.63;;;1.10;;
20084;SDS011;10202;48.474;9.138;2022-10-16T09:22:26;3.08;;;1.30;;
20084;SDS011;10202;48.474;9.138;2022-10-16T09:24:54;4.72;;;1.20;;
20084;SDS011;10202;48.474;9.138;2022-10-16T09:27:20;3.25;;;1.20;;
20084;SDS011;10202;48.474;9.138;2022-10-16T09:29:45;2.10;;;1.20;;
20084;SDS011;10202;48.474;9.138;2022-10-16T09:34:59;2.85;;;1.17;;
20084;SDS011;10202;48.474;9.138;2022-10-16T09:37:25;2.08;;;1.52;;
20084;SDS011;10202;48.474;9.138;2022-10-16T09:42:48;6.35;;;1.77;;
20084;SDS011;10202;48.474;9.138;2022-10-16T09:54:13;7.53;;;1.58;;
20084;SDS011;10202;48.474;9.138;2022-10-16T09:56:41;4.47;;;1.40;;
20084;SDS011;10202;48.474;9.138;2022-10-16T10:01:56;6.28;;;1.50;;
20084;SDS011;10202;48.474;9.138;2022-10-16T10:04:24;6.22;;;1.40;;
20084;SDS011;10202;48.474;9.138;2022-10-16T10:06:51;1.40;;;1.30;;
20084;SDS011;10202;48.474;9.138;2022-10-16T10:17:57;8.80;;;2.50;;
20084;SDS011;10202;48.474;9.138;2022-10-16T10:23:43;7.88;;;1.98;;
20084;SDS011;10202;48.474;9.138;2022-10-16T10:35:26;5.78;;;1.65;;
20084;SDS011;10202;48.474;9.138;2022-10-16T10:38:43;5.75;;;1.50;;
20084;SDS011;10202;48.474;9.138;2022-10-16T10:45:28;1.58;;;1.10;;
20084;SDS011;10202;48.474;9.138;2022-10-16T11:09:24;1.52;;;1.00;;
20084;SDS011;10202;48.474;9.138;2022-10-16T11:27:07;1.08;;;0.98;;
20084;SDS011;10202;48.474;9.138;2022-10-16T11:29:43;1.00;;;0.90;;
20084;SDS011;10202;48.474;9.138;2022-10-16T11:35:18;3.60;;;0.98;;
20084;SDS011;10202;48.474;9.138;2022-10-16T11:51:02;1.48;;;0.95;;
20084;SDS011;10202;48.474;9.138;2022-10-16T11:56:50;1.08;;;0.93;;
20084;SDS011;10202;48.474;9.138;2022-10-16T12:08:43;1.48;;;1.10;;
20084;SDS011;10202;48.474;9.138;2022-10-16T12:14:32;0.95;;;0.90;;
20084;SDS011;10202;48.474;9.138;2022-10-16T12:17:02;4.40;;;1.30;;
20084;SDS011;10202;48.474;9.138;2022-10-16T12:19:31;1.80;;;1.20;;
20084;SDS011;10202;48.474;9.138;2022-10-16T12:24:45;2.65;;;1.08;;
20084;SDS011;10202;48.474;9.138;2022-10-16T12:30:15;2.25;;;1.13;;
20084;SDS011;10202;48.474;9.138;2022-10-16T12:32:52;2.88;;;1.40;;
20084;SDS011;10202;48.474;9.138;2022-10-16T12:41:32;4.80;;;1.20;;
20084;SDS011;10202;48.474;9.138;2022-10-16T12:44:00;1.88;;;1.20;;
20084;SDS011;10202;48.474;9.138;2022-10-16T12:46:48;2.80;;;1.40;;
20084;SDS011;10202;48.474;9.138;2022-10-16T12:58:11;1.80;;;1.27;;
20084;SDS011;10202;48.474;9.138;2022-10-16T13:18:35;1.17;;;1.08;;
20084;SDS011;10202;48.474;9.138;2022-10-16T13:25:33;6.40;;;1.45;;
20084;SDS011;10202;48.474;9.138;2022-10-16T13:27:56;5.65;;;1.50;;
20084;SDS011;10202;48.474;9.138;2022-10-16T13:30:28;3.00;;;1.33;;
20084;SDS011;10202;48.474;9.138;2022-10-16T13:32:58;3.53;;;1.30;;
20084;SDS011;10202;48.474;9.138;2022-10-16T13:35:27;3.75;;;1.40;;
20084;SDS011;10202;48.474;9.138;2022-10-16T13:46:40;2.25;;;1.40;;
20084;SDS011;10202;48.474;9.138;2022-10-16T13:52:00;1.67;;;1.38;;
20084;SDS011;10202;48.474;9.138;2022-10-16T13:54:26;2.17;;;1.30;;
20084;SDS011;10202;48.474;9.138;2022-10-16T13:56:53;5.35;;;1.40;;
20084;SDS011;10202;48.474;9.138;2022-10-16T14:05:14;5.05;;;1.40;;
20084;SDS011;10202;48.474;9.138;2022-10-16T14:07:40;5.15;;;1.70;;
20084;SDS011;10202;48.474;9.138;2022-10-16T14:10:07;9.50;;;1.48;;
20084;SDS011;10202;48.474;9.138;2022-10-16T14:12:45;2.63;;;1.45;;
20084;SDS011;10202;48.474;9.138;2022-10-16T14:18:02;1.50;;;1.40;;
20084;SDS011;10202;48.474;9.138;2022-10-16T14:26:11;3.38;;;1.70;;
20084;SDS011;10202;48.474;9.138;2022-10-16T14:29:11;3.60;;;1.60;;
20084;SDS011;10202;48.474;9.138;2022-10-16T14:31:38;5.90;;;1.70;;
20084;SDS011;10202;48.474;9.138;2022-10-16T14:34:22;11.07;;;1.85;;
20084;SDS011;10202;48.474;9.138;2022-10-16T14:36:49;6.20;;;1.50;;
20084;SDS011;10202;48.474;9.138;2022-10-16T14:42:04;7.25;;;1.70;;
20084;SDS011;10202;48.474;9.138;2022-10-16T14:44:31;5.70;;;1.80;;
20084;SDS011;10202;48.474;9.138;2022-10-16T14:46:57;3.17;;;1.50;;
20084;SDS011;10202;48.474;9.138;2022-10-16T14:49:24;4.60;;;1.60;;
20084;SDS011;10202;48.474;9.138;2022-10-16T14:51:50;3.40;;;1.63;;
20084;SDS011;10202;48.474;9.138;2022-10-16T14:54:17;2.65;;;1.60;;
20084;SDS011;10202;48.474;9.138;2022-10-16T14:56:45;5.85;;;1.52;;
20084;SDS011;10202;48.474;9.138;2022-10-16T14:59:14;4.18;;;1.60;;
20084;SDS011;10202;48.474;9.138;2022-10-16T15:01:42;3.50;;;1.65;;
20084;SDS011;10202;48.474;9.138;2022-10-16T15:04:09;6.25;;;1.63;;
20084;SDS011;10202;48.474;9.138;2022-10-16T15:06:36;4.60;;;1.50;;
20084;SDS011;10202;48.474;9.138;2022-10-16T15:09:02;7.35;;;1.58;;
20084;SDS011;10202;48.474;9.138;2022-10-16T15:11:28;5.03;;;1.77;;
20084;SDS011;10202;48.474;9.138;2022-10-16T15:13:53;2.15;;;1.30;;
20084;SDS011;10202;48.474;9.138;2022-10-16T15:16:19;5.40;;;1.80;;
20084;SDS011;10202;48.474;9.138;2022-10-16T15:18:44;4.55;;;1.55;;
20084;SDS011;10202;48.474;9.138;2022-10-16T15:24:09;2.67;;;1.33;;
20084;SDS011;10202;48.474;9.138;2022-10-16T15:26:37;5.70;;;2.00;;
20084;SDS011;10202;48.474;9.138;2022-10-16T15:29:03;7.65;;;1.60;;
20084;SDS011;10202;48.474;9.138;2022-10-16T15:31:28;3.83;;;1.50;;
20084;SDS011;10202;48.474;9.138;2022-10-16T15:33:54;7.50;;;1.80;;
20084;SDS011;10202;48.474;9.138;2022-10-16T15:39:12;8.07;;;2.13;;
20084;SDS011;10202;48.474;9.138;2022-10-16T15:41:39;9.50;;;2.03;;
20084;SDS011;10202;48.474;9.138;2022-10-16T15:44:05;2.83;;;1.90;;
20084;SDS011;10202;48.474;9.138;2022-10-16T15:46:30;3.08;;;2.00;;
20084;SDS011;10202;48.474;9.138;2022-10-16T15:48:57;6.32;;;2.00;;
20084;SDS011;10202;48.474;9.138;2022-10-16T15:51:23;6.65;;;2.15;;
20084;SDS011;10202;48.474;9.138;2022-10-16T15:53:49;3.03;;;2.00;;
20084;SDS011;10202;48.474;9.138;2022-10-16T15:56:16;5.30;;;2.20;;
20084;SDS011;10202;48.474;9.138;2022-10-16T15:58:42;4.22;;;1.90;;
20084;SDS011;10202;48.474;9.138;2022-10-16T16:01:09;6.68;;;1.80;;
20084;SDS011;10202;48.474;9.138;2022-10-16T16:03:36;3.72;;;1.85;;
20084;SDS011;10202;48.474;9.138;2022-10-16T16:06:04;6.18;;;1.70;;
20084;SDS011;10202;48.474;9.138;2022-10-16T16:08:35;5.82;;;1.65;;
20084;SDS011;10202;48.474;9.138;2022-10-16T16:13:57;5.68;;;1.90;;
20084;SDS011;10202;48.474;9.138;2022-10-16T16:16:22;3.17;;;2.05;;
20084;SDS011;10202;48.474;9.138;2022-10-16T16:18:48;4.97;;;2.03;;
20084;SDS011;10202;48.474;9.138;2022-10-16T16:21:17;4.53;;;2.03;;
20084;SDS011;10202;48.474;9.138;2022-10-16T16:23:43;1.80;;;1.38;;
20084;SDS011;10202;48.474;9.138;2022-10-16T16:29:04;10.40;;;2.08;;
20084;SDS011;10202;48.474;9.138;2022-10-16T16:31:30;6.18;;;1.90;;
20084;SDS011;10202;48.474;9.138;2022-10-16T16:33:56;4.80;;;2.03;;
20084;SDS011;10202;48.474;9.138;2022-10-16T16:36:22;6.75;;;1.98;;
20084;SDS011;10202;48.474;9.138;2022-10-16T16:38:49;3.97;;;2.17;;
20084;SDS011;10202;48.474;9.138;2022-10-16T16:41:16;3.28;;;2.10;;
20084;SDS011;10202;48.474;9.138;2022-10-16T16:43:43;4.60;;;1.92;;
20084;SDS011;10202;48.474;9.138;2022-10-16T16:46:09;10.18;;;1.95;;
20084;SDS011;10202;48.474;9.138;2022-10-16T16:48:35;3.78;;;2.15;;
20084;SDS011;10202;48.474;9.138;2022-10-16T16:53:49;5.90;;;2.53;;
20084;SDS011;10202;48.474;9.138;2022-10-16T16:56:16;12.35;;;2.00;;
20084;SDS011;10202;48.474;9.138;2022-10-16T16:58:44;2.65;;;1.60;;
20084;SDS011;10202;48.474;9.138;2022-10-16T17:01:10;5.65;;;1.90;;
20084;SDS011;10202;48.474;9.138;2022-10-16T17:03:36;3.25;;;1.52;;
20084;SDS011;10202;48.474;9.138;2022-10-16T17:06:03;11.15;;;3.28;;
20084;SDS011;10202;48.474;9.138;2022-10-16T17:08:30;8.57;;;3.45;;
20084;SDS011;10202;48.474;9.138;2022-10-16T17:10:56;5.55;;;2.42;;
20084;SDS011;10202;48.474;9.138;2022-10-16T17:13:22;6.32;;;2.30;;
20084;SDS011;10202;48.474;9.138;2022-10-16T17:16:11;8.07;;;2.30;;
20084;SDS011;10202;48.474;9.138;2022-10-16T17:18:37;1.73;;;1.45;;
20084;SDS011;10202;48.474;9.138;2022-10-16T17:21:04;4.32;;;1.70;;
20084;SDS011;10202;48.474;9.138;2022-10-16T17:23:32;4.53;;;1.27;;
20084;SDS011;10202;48.474;9.138;2022-10-16T17:28:54;5.38;;;1.58;;
20084;SDS011;10202;48.474;9.138;2022-10-16T17:31:22;3.33;;;1.35;;
20084;SDS011;10202;48.474;9.138;2022-10-16T17:33:49;4.43;;;1.58;;
20084;SDS011;10202;48.474;9.138;2022-10-16T17:36:16;2.65;;;1.40;;
20084;SDS011;10202;48.474;9.138;2022-10-16T17:38:42;6.75;;;1.40;;
20084;SDS011;10202;48.474;9.138;2022-10-16T17:41:09;1.35;;;1.05;;
20084;SDS011;10202;48.474;9.138;2022-10-16T17:43:58;3.03;;;1.45;;
20084;SDS011;10202;48.474;9.138;2022-10-16T17:46:23;2.28;;;1.10;;
20084;SDS011;10202;48.474;9.138;2022-10-16T17:48:50;5.45;;;1.48;;
20084;SDS011;10202;48.474;9.138;2022-10-16T17:51:19;5.82;;;1.67;;
20084;SDS011;10202;48.474;9.138;2022-10-16T17:53:52;3.17;;;1.08;;
20084;SDS011;10202;48.474;9.138;2022-10-16T17:56:18;2.75;;;1.38;;
20084;SDS011;10202;48.474;9.138;2022-10-16T17:58:47;2.03;;;1.30;;
20084;SDS011;10202;48.474;9.138;2022-10-16T18:01:14;1.45;;;1.35;;
20084;SDS011;10202;48.474;9.138;2022-10-16T18:03:42;4.03;;;1.50;;
20084;SDS011;10202;48.474;9.138;2022-10-16T18:06:07;8.32;;;1.35;;
20084;SDS011;10202;48.474;9.138;2022-10-16T18:08:33;1.20;;;1.10;;
20084;SDS011;10202;48.474;9.138;2022-10-16T18:11:01;4.60;;;1.52;;
20084;SDS011;10202;48.474;9.138;2022-10-16T18:13:27;5.85;;;1.42;;
20084;SDS011;10202;48.474;9.138;2022-10-16T18:18:52;6.15;;;1.38;;
20084;SDS011;10202;48.474;9.138;2022-10-16T18:21:18;6.28;;;1.38;;
20084;SDS011;10202;48.474;9.138;2022-10-16T18:23:44;2.17;;;1.33;;
20084;SDS011;10202;48.474;9.138;2022-10-16T18:26:11;2.38;;;1.20;;
20084;SDS011;10202;48.474;9.138;2022-10-16T18:28:37;3.45;;;1.40;;
20084;SDS011;10202;48.474;9.138;2022-10-16T18:31:04;6.43;;;1.65;;
20084;SDS011;10202;48.474;9.138;2022-10-16T18:33:33;1.40;;;1.30;;
20084;SDS011;10202;48.474;9.138;2022-10-16T18:36:00;4.03;;;1.08;;
20084;SDS011;10202;48.474;9.138;2022-10-16T18:38:26;3.25;;;1.27;;
20084;SDS011;10202;48.474;9.138;2022-10-16T18:40:51;2.95;;;1.30;;
20084;SDS011;10202;48.474;9.138;2022-10-16T18:43:17;1.55;;;1.38;;
20084;SDS011;10202;48.474;9.138;2022-10-16T18:45:43;4.63;;;1.48;;
20084;SDS011;10202;48.474;9.138;2022-10-16T18:48:08;5.13;;;1.90;;
20084;SDS011;10202;48.474;9.138;2022-10-16T18:50:34;9.38;;;2.58;;
20084;SDS011;10202;48.474;9.138;2022-10-16T18:52:59;7.80;;;2.80;;
20084;SDS011;10202;48.474;9.138;2022-10-16T18:55:25;9.52;;;2.88;;
20084;SDS011;10202;48.474;9.138;2022-10-16T18:57:51;2.42;;;2.22;;
20084;SDS011;10202;48.474;9.138;2022-10-16T19:00:19;6.32;;;1.95;;
20084;SDS011;10202;48.474;9.138;2022-10-16T19:02:44;7.25;;;2.90;;
20084;SDS011;10202;48.474;9.138;2022-10-16T19:05:10;4.75;;;2.90;;
20084;SDS011;10202;48.474;9.138;2022-10-16T19:07:35;12.27;;;2.70;;
20084;SDS011;10202;48.474;9.138;2022-10-16T19:10:01;7.75;;;1.70;;
20084;SDS011;10202;48.474;9.138;2022-10-16T19:12:26;3.30;;;1.67;;
20084;SDS011;10202;48.474;9.138;2022-10-16T19:14:52;1.90;;;1.27;;
20084;SDS011;10202;48.474;9.138;2022-10-16T19:17:17;6.63;;;1.40;;
20084;SDS011;10202;48.474;9.138;2022-10-16T19:19:43;3.92;;;1.45;;